Corinthian — ZGAH2 — position and weather

sailwx.info

Track history (hours):
 
Tides and Currents Weather Stations Pressure Air Temp Water Temp Dewpoint Dewpoint Depression Visibility Wind Speed Wind Dir Waves Ship Positions

Corinthian

Last reported at 2017-Sep-14 03:00 UTC. Time now 2017-Nov-19 14:24 UTC.
Position N 42°17' W 070°39'.
Warning: this ship's position is months out of date.

Length 40 m.

Type: Pleasure craft. MMSI: 319017100.

Date/timePositionNaut miles runAvg speedWind from/ knotsBaromVisibWave heightAir tempDewpointWater temp
2017-Sep-14 03:00N 42°17' W 070°39'610.8
2017-Sep-14 02:26N 42°22' W 070°43'511.0
2017-Sep-14 02:00N 42°26' W 070°46'5 9.9
2017-Sep-14 01:30N 42°31' W 070°50'0 0.0
2017-Sep-13 23:39N 42°31' W 070°50'0 0.0
2017-Sep-13 20:21N 42°31' W 070°50'0 0.0
2017-Sep-13 19:36N 42°31' W 070°50'0 0.0
2017-Sep-13 19:27N 42°31' W 070°50'0 0.0
2017-Sep-13 18:27N 42°31' W 070°50'0 0.0
2017-Sep-13 11:39N 42°31' W 070°50'0 0.0
2017-Sep-13 11:24N 42°31' W 070°50'0 0.0
2017-Sep-13 11:00N 42°31' W 070°50'0 0.0
2017-Sep-13 10:09N 42°31' W 070°50'0 0.0
2017-Sep-13 09:48N 42°31' W 070°50'0 0.0
2017-Sep-13 09:30N 42°31' W 070°50'0 0.0
2017-Sep-13 08:45N 42°31' W 070°50'0 0.0
2017-Sep-13 08:18N 42°31' W 070°50'0 0.0
2017-Sep-13 07:42N 42°31' W 070°50'0 0.0
2017-Sep-13 07:30N 42°31' W 070°50'0 0.0
2017-Sep-13 06:57N 42°31' W 070°50'0 0.0
2017-Sep-13 06:24N 42°31' W 070°50'0 0.0
2017-Sep-13 05:42N 42°31' W 070°50'0 0.0
2017-Sep-13 05:27N 42°31' W 070°50'0 0.0
2017-Sep-13 04:57N 42°31' W 070°50'0 0.0
2017-Sep-13 04:27N 42°31' W 070°50'0 0.0
2017-Sep-13 03:57N 42°31' W 070°50'0 0.0
2017-Sep-13 03:24N 42°31' W 070°50'0 0.0
2017-Sep-13 03:00N 42°31' W 070°50'0 0.0
2017-Sep-13 02:12N 42°31' W 070°50'0 0.0
2017-Sep-12 18:36N 42°31' W 070°50'0 0.9
2017-Sep-12 18:30N 42°31' W 070°50'1 0.3
2017-Sep-12 15:16N 42°30' W 070°49'711.1
2017-Sep-12 14:40N 42°24' W 070°53'210.9
2017-Sep-12 14:30N 42°22' W 070°55'5 9.6
2017-Sep-12 13:58N 42°21' W 071°01'1 0.7
2017-Sep-12 11:53N 42°22' W 071°03'0 0.0
2017-Sep-12 10:11N 42°22' W 071°03'0 0.0
2017-Sep-12 09:59N 42°22' W 071°03'0 0.0
2017-Sep-12 09:29N 42°22' W 071°03'0 0.0
2017-Sep-12 08:59N 42°22' W 071°03'0 0.0
2017-Sep-12 08:02N 42°22' W 071°03'0 0.0
2017-Sep-12 05:47N 42°22' W 071°03'0 0.0
2017-Sep-11 11:23N 42°22' W 071°03'0 0.0
2017-Sep-11 10:59N 42°22' W 071°03'0 0.0
2017-Sep-11 10:29N 42°22' W 071°03'0 0.0
2017-Sep-11 09:59N 42°22' W 071°03'0 0.0
2017-Sep-11 09:17N 42°22' W 071°03'0 0.0
2017-Sep-11 08:59N 42°22' W 071°03'0 0.0
2017-Sep-11 08:29N 42°22' W 071°03'0 0.0
2017-Sep-11 00:27N 42°22' W 071°03'2 3.5
2017-Sep-11 00:00N 42°21' W 071°01'4 8.7
2017-Sep-10 23:30N 42°22' W 070°55'510.1
2017-Sep-10 23:00N 42°24' W 070°49'510.0
2017-Sep-10 22:30N 42°27' W 070°44'510.0
2017-Sep-10 22:00N 42°31' W 070°39'510.2
2017-Sep-10 21:30N 42°34' W 070°34'510.3
2017-Sep-10 21:00N 42°38' W 070°29'510.8
2017-Sep-10 20:30N 42°41' W 070°24'10310.4
2017-Sep-10 10:36N 44°05' W 069°01'210.6
2017-Sep-10 10:23N 44°08' W 069°01'411.0
2017-Sep-10 10:00N 44°12' W 069°03'1 1.3
2017-Sep-10 09:29N 44°12' W 069°03'0 0.0
2017-Sep-10 08:59N 44°12' W 069°03'0 0.0
2017-Sep-10 08:29N 44°12' W 069°03'0 0.0
2017-Sep-10 07:59N 44°12' W 069°03'0 0.0
2017-Sep-10 07:29N 44°12' W 069°03'0 0.0
2017-Sep-10 06:59N 44°12' W 069°03'0 0.0
2017-Sep-10 06:29N 44°12' W 069°03'0 0.0
2017-Sep-10 05:59N 44°12' W 069°03'0 0.0
2017-Sep-10 05:29N 44°12' W 069°03'0 0.1
2017-Sep-10 05:00N 44°13' W 069°03'0 0.0
2017-Sep-10 04:29N 44°12' W 069°03'0 0.0
2017-Sep-10 03:59N 44°12' W 069°03'0 0.0
2017-Sep-10 03:30N 44°12' W 069°03'0 0.1
2017-Sep-10 03:00N 44°13' W 069°03'0 0.0
2017-Sep-10 02:29N 44°13' W 069°03'0 0.0
2017-Sep-10 01:59N 44°13' W 069°03'0 0.0
2017-Sep-10 01:29N 44°12' W 069°03'0 0.0
2017-Sep-10 00:59N 44°12' W 069°03'0 0.0
2017-Sep-10 00:29N 44°12' W 069°03'0 0.0
2017-Sep-09 23:59N 44°12' W 069°03'0 0.1
2017-Sep-09 23:29N 44°12' W 069°03'0 0.0
2017-Sep-09 22:59N 44°12' W 069°03'0 0.0
2017-Sep-09 22:23N 44°12' W 069°03'0 0.0
2017-Sep-09 21:59N 44°12' W 069°03'0 0.0
2017-Sep-09 21:29N 44°12' W 069°03'0 0.0
2017-Sep-09 20:59N 44°12' W 069°03'0 0.0
2017-Sep-09 20:29N 44°12' W 069°03'0 0.0
2017-Sep-09 19:59N 44°12' W 069°03'0 0.1
2017-Sep-09 19:30N 44°13' W 069°03'0 0.0
2017-Sep-09 18:59N 44°13' W 069°03'0 0.0
2017-Sep-09 18:29N 44°13' W 069°03'0 0.0
2017-Sep-09 17:59N 44°13' W 069°03'4 6.6
2017-Sep-09 17:21N 44°09' W 069°00'13 3.9
2017-Sep-09 13:59N 44°01' W 068°46'8 5.5
2017-Sep-09 12:31N 44°08' W 068°51'0 9.5
2017-Sep-09 12:30N 44°08' W 068°51'1 1.5
2017-Sep-09 11:59N 44°07' W 068°52'0 0.0
2017-Sep-09 11:29N 44°07' W 068°52'2 4.4
2017-Sep-09 11:01N 44°08' W 068°49'4 8.7
2017-Sep-09 10:31N 44°08' W 068°43'2 3.9
2017-Sep-09 09:54N 44°09' W 068°40'0 0.0
2017-Sep-09 09:12N 44°09' W 068°40'0 0.0
2017-Sep-09 08:42N 44°09' W 068°40'0 0.0
2017-Sep-09 08:27N 44°09' W 068°40'0 0.0
2017-Sep-09 07:24N 44°09' W 068°40'0 0.0
2017-Sep-09 06:33N 44°09' W 068°40'0 0.1
2017-Sep-09 06:27N 44°09' W 068°40'0 0.0
2017-Sep-09 05:45N 44°09' W 068°40'0 0.0
2017-Sep-09 05:18N 44°09' W 068°40'0 0.0
2017-Sep-09 04:54N 44°09' W 068°40'0 0.0
2017-Sep-09 04:30N 44°09' W 068°40'0 0.0
2017-Sep-09 03:42N 44°09' W 068°40'0 0.0
2017-Sep-09 03:24N 44°09' W 068°40'0 0.0
2017-Sep-09 03:00N 44°09' W 068°40'0 0.0
2017-Sep-09 02:30N 44°09' W 068°40'0 0.1
2017-Sep-09 02:00N 44°09' W 068°40'0 0.0
2017-Sep-09 01:30N 44°09' W 068°40'0 0.0
2017-Sep-09 00:12N 44°09' W 068°40'0 0.1
2017-Sep-09 00:00N 44°09' W 068°40'0 0.0
2017-Sep-08 23:18N 44°09' W 068°40'0 0.0
2017-Sep-08 22:54N 44°09' W 068°40'0 0.0
2017-Sep-08 22:30N 44°09' W 068°40'0 0.0
2017-Sep-08 22:00N 44°09' W 068°40'2 1.6
2017-Sep-08 21:02N 44°09' W 068°38'010.0
2017-Sep-08 21:00N 44°10' W 068°38'5 9.3
2017-Sep-08 20:30N 44°11' W 068°31'4 8.0
2017-Sep-08 20:00N 44°14' W 068°27'4 8.3
2017-Sep-08 19:30N 44°13' W 068°21'4 8.0
2017-Sep-08 19:00N 44°13' W 068°16'5 9.3
2017-Sep-08 18:30N 44°15' W 068°10'5 9.0
2017-Sep-08 18:00N 44°19' W 068°08'5 8.1
2017-Sep-08 17:21N 44°24' W 068°12'0 0.2
2017-Sep-08 16:58N 44°24' W 068°12'0 0.0
2017-Sep-08 16:28N 44°24' W 068°12'0 0.0
2017-Sep-08 15:58N 44°24' W 068°12'0 0.0
2017-Sep-08 15:28N 44°24' W 068°12'0 0.0
2017-Sep-08 14:58N 44°24' W 068°12'0 0.0
2017-Sep-08 14:28N 44°24' W 068°12'0 0.0
2017-Sep-08 13:58N 44°24' W 068°12'0 0.0
2017-Sep-08 13:28N 44°24' W 068°12'0 0.0
2017-Sep-08 12:58N 44°24' W 068°12'0 0.0
2017-Sep-08 12:28N 44°24' W 068°12'0 0.0
2017-Sep-08 11:58N 44°24' W 068°12'0 0.0
2017-Sep-08 11:28N 44°24' W 068°12'0 0.0
2017-Sep-08 10:58N 44°24' W 068°12'0 0.0
2017-Sep-08 10:28N 44°24' W 068°12'0 0.0
2017-Sep-08 09:58N 44°24' W 068°12'0 0.0
2017-Sep-08 09:28N 44°24' W 068°12'0 0.0
2017-Sep-08 08:58N 44°24' W 068°12'0 0.0
2017-Sep-08 08:28N 44°24' W 068°12'0 0.0
2017-Sep-08 07:58N 44°24' W 068°12'0 0.0
2017-Sep-08 07:28N 44°24' W 068°12'0 0.0
2017-Sep-08 06:58N 44°24' W 068°12'0 0.0
2017-Sep-08 06:28N 44°24' W 068°12'0 0.0
2017-Sep-08 05:58N 44°24' W 068°12'0 0.0
2017-Sep-08 05:28N 44°24' W 068°12'0 0.0
2017-Sep-08 04:58N 44°24' W 068°12'0 0.0
2017-Sep-08 04:28N 44°24' W 068°12'0 0.0
2017-Sep-08 03:58N 44°24' W 068°12'0 0.0
2017-Sep-08 03:28N 44°24' W 068°12'0 0.0
2017-Sep-08 02:58N 44°24' W 068°12'0 0.0
2017-Sep-08 02:28N 44°24' W 068°12'0 0.0
2017-Sep-08 01:58N 44°24' W 068°12'0 0.0
2017-Sep-08 01:28N 44°24' W 068°12'0 0.0
2017-Sep-08 00:58N 44°24' W 068°12'0 0.0
2017-Sep-08 00:28N 44°24' W 068°12'0 0.0
2017-Sep-07 23:58N 44°24' W 068°12'0 0.0
2017-Sep-07 23:28N 44°24' W 068°12'0 0.0
2017-Sep-07 22:58N 44°24' W 068°12'0 0.0
2017-Sep-07 22:28N 44°24' W 068°12'0 0.0
2017-Sep-07 21:58N 44°24' W 068°12'0 0.0
2017-Sep-07 21:28N 44°24' W 068°12'0 0.0
2017-Sep-07 20:58N 44°24' W 068°12'0 0.0
2017-Sep-07 20:28N 44°24' W 068°12'0 0.0
2017-Sep-07 19:58N 44°24' W 068°12'0 0.0
2017-Sep-07 19:28N 44°24' W 068°12'0 0.0
2017-Sep-07 18:58N 44°24' W 068°12'0 0.0
2017-Sep-07 18:28N 44°24' W 068°12'0 0.0
2017-Sep-07 17:58N 44°24' W 068°12'0 0.0
2017-Sep-07 17:28N 44°24' W 068°12'0 0.0
2017-Sep-07 16:58N 44°24' W 068°12'0 0.0
2017-Sep-07 16:28N 44°24' W 068°12'0 0.0
2017-Sep-07 15:58N 44°24' W 068°12'0 0.0
2017-Sep-07 15:28N 44°24' W 068°12'0 0.0
2017-Sep-07 14:58N 44°24' W 068°12'0 0.0
2017-Sep-07 14:28N 44°24' W 068°12'0 0.0
2017-Sep-07 13:58N 44°24' W 068°12'0 0.0
2017-Sep-07 13:28N 44°24' W 068°12'0 0.0
2017-Sep-07 12:58N 44°24' W 068°12'0 0.0
2017-Sep-07 12:28N 44°24' W 068°12'0 0.0
2017-Sep-07 11:58N 44°24' W 068°12'0 0.0
2017-Sep-07 11:28N 44°24' W 068°12'0 0.0
2017-Sep-07 10:58N 44°24' W 068°12'0 0.0
2017-Sep-07 10:25N 44°24' W 068°12'0 0.0
2017-Sep-07 09:58N 44°24' W 068°12'0 0.0
2017-Sep-07 09:28N 44°24' W 068°12'0 0.0
2017-Sep-07 08:58N 44°24' W 068°12'0 0.0
2017-Sep-07 08:28N 44°24' W 068°12'0 0.0
2017-Sep-07 07:58N 44°24' W 068°12'0 0.0
2017-Sep-07 07:28N 44°24' W 068°12'0 0.0
2017-Sep-07 06:58N 44°24' W 068°12'0 0.0
2017-Sep-07 06:28N 44°24' W 068°12'0 0.0
2017-Sep-07 05:58N 44°24' W 068°12'0 0.0
2017-Sep-07 05:28N 44°24' W 068°12'0 0.0
2017-Sep-07 04:58N 44°24' W 068°12'0 0.0
2017-Sep-07 04:28N 44°24' W 068°12'0 0.0
2017-Sep-07 03:58N 44°24' W 068°12'0 0.0
2017-Sep-07 03:28N 44°24' W 068°12'0 0.0
2017-Sep-07 02:58N 44°24' W 068°12'0 0.0
2017-Sep-07 02:28N 44°24' W 068°12'0 0.0
2017-Sep-07 01:58N 44°24' W 068°12'0 0.0
2017-Sep-07 01:28N 44°24' W 068°12'0 0.0
2017-Sep-07 00:58N 44°24' W 068°12'0 0.0
2017-Sep-07 00:28N 44°24' W 068°12'0 0.0
2017-Sep-06 23:58N 44°24' W 068°12'0 0.0
2017-Sep-06 23:28N 44°24' W 068°12'0 0.0
2017-Sep-06 22:58N 44°24' W 068°12'0 0.0
2017-Sep-06 22:28N 44°24' W 068°12'0 0.0
2017-Sep-06 21:58N 44°24' W 068°12'0 0.0
2017-Sep-06 21:28N 44°24' W 068°12'0 0.0
2017-Sep-06 20:58N 44°24' W 068°12'0 0.0
2017-Sep-06 20:28N 44°24' W 068°12'0 0.0
2017-Sep-06 19:58N 44°24' W 068°12'0 0.0
2017-Sep-06 19:28N 44°24' W 068°12'0 0.0
2017-Sep-06 18:58N 44°24' W 068°12'0 0.0
2017-Sep-06 18:28N 44°24' W 068°12'0 0.0
2017-Sep-06 17:58N 44°24' W 068°12'0 0.0
2017-Sep-06 17:28N 44°24' W 068°12'0 0.0
2017-Sep-06 16:58N 44°24' W 068°12'0 0.0
2017-Sep-06 16:28N 44°24' W 068°12'0 0.0
2017-Sep-06 15:58N 44°24' W 068°12'0 0.0
2017-Sep-06 15:28N 44°24' W 068°12'0 0.0
2017-Sep-06 14:58N 44°24' W 068°12'0 0.0
2017-Sep-06 14:28N 44°24' W 068°12'0 0.0
2017-Sep-06 13:58N 44°24' W 068°12'0 0.0
2017-Sep-06 13:28N 44°24' W 068°12'0 0.0
2017-Sep-06 12:58N 44°24' W 068°12'0 0.0
2017-Sep-06 12:28N 44°24' W 068°12'0 0.0
2017-Sep-06 11:58N 44°24' W 068°12'0 0.0
2017-Sep-06 11:28N 44°24' W 068°12'0 0.0
2017-Sep-06 10:58N 44°24' W 068°12'0 0.0
2017-Sep-06 10:28N 44°24' W 068°12'0 0.0
2017-Sep-06 09:58N 44°24' W 068°12'0 0.0
2017-Sep-06 09:28N 44°24' W 068°12'0 0.0
2017-Sep-06 08:58N 44°24' W 068°12'0 0.0
2017-Sep-06 08:28N 44°24' W 068°12'0 0.0
2017-Sep-06 07:58N 44°24' W 068°12'0 0.0
2017-Sep-06 07:28N 44°24' W 068°12'0 0.0
2017-Sep-06 06:58N 44°24' W 068°12'0 0.0
2017-Sep-06 06:28N 44°24' W 068°12'0 0.0
2017-Sep-06 05:58N 44°24' W 068°12'0 0.0
2017-Sep-06 05:28N 44°24' W 068°12'0 0.0
2017-Sep-06 04:58N 44°24' W 068°12'0 0.0
2017-Sep-06 04:28N 44°24' W 068°12'0 0.0
2017-Sep-06 03:58N 44°24' W 068°12'0 0.0
2017-Sep-06 03:28N 44°24' W 068°12'0 0.0
2017-Sep-06 02:58N 44°24' W 068°12'0 0.0
2017-Sep-06 02:28N 44°24' W 068°12'0 0.0
2017-Sep-06 01:58N 44°24' W 068°12'0 0.0
2017-Sep-06 01:28N 44°24' W 068°12'0 0.0
2017-Sep-06 00:58N 44°24' W 068°12'0 0.0
2017-Sep-06 00:28N 44°24' W 068°12'0 0.0
2017-Sep-05 23:58N 44°24' W 068°12'0 0.0
2017-Sep-05 23:28N 44°24' W 068°12'0 0.0
2017-Sep-05 22:58N 44°24' W 068°12'0 0.0
2017-Sep-05 22:28N 44°24' W 068°12'0 0.0
2017-Sep-05 21:58N 44°24' W 068°12'0 0.0
2017-Sep-05 21:28N 44°24' W 068°12'0 0.0
2017-Sep-05 20:58N 44°24' W 068°12'0 0.0
2017-Sep-05 20:28N 44°24' W 068°12'0 0.0
2017-Sep-05 19:58N 44°24' W 068°12'0 0.0
2017-Sep-05 19:28N 44°24' W 068°12'0 0.0
2017-Sep-05 18:58N 44°24' W 068°12'0 0.0
2017-Sep-05 18:28N 44°24' W 068°12'0 0.0
2017-Sep-05 17:58N 44°24' W 068°12'0 0.0
2017-Sep-05 16:10N 44°24' W 068°12'0 0.0
2017-Sep-05 15:58N 44°24' W 068°12'0 0.0
2017-Sep-05 15:28N 44°24' W 068°12'0 0.0
2017-Sep-05 14:58N 44°24' W 068°12'0 0.0
2017-Sep-05 14:28N 44°24' W 068°12'0 0.0
2017-Sep-05 13:58N 44°24' W 068°12'0 0.0
2017-Sep-05 13:28N 44°24' W 068°12'0 0.0
2017-Sep-05 12:58N 44°24' W 068°12'0 0.0
2017-Sep-05 12:28N 44°24' W 068°12'0 0.0
2017-Sep-05 11:58N 44°24' W 068°12'0 0.0
2017-Sep-05 11:28N 44°24' W 068°12'0 0.0
2017-Sep-05 10:58N 44°24' W 068°12'0 0.0
2017-Sep-05 10:28N 44°24' W 068°12'0 0.0
2017-Sep-05 09:58N 44°24' W 068°12'0 0.0
2017-Sep-05 09:28N 44°24' W 068°12'0 0.0
2017-Sep-05 08:58N 44°24' W 068°12'0 0.0
2017-Sep-05 08:28N 44°24' W 068°12'0 0.0
2017-Sep-05 07:58N 44°24' W 068°12'0 0.0
2017-Sep-05 07:28N 44°24' W 068°12'0 0.0
2017-Sep-05 06:58N 44°24' W 068°12'0 0.0
2017-Sep-05 06:25N 44°24' W 068°12'0 0.0
2017-Sep-05 05:58N 44°24' W 068°12'0 0.0
2017-Sep-05 05:28N 44°24' W 068°12'0 0.0
2017-Sep-05 04:58N 44°24' W 068°12'0 0.0
2017-Sep-05 04:28N 44°24' W 068°12'0 0.0
2017-Sep-05 03:58N 44°24' W 068°12'0 0.0
2017-Sep-05 03:28N 44°24' W 068°12'0 0.0
2017-Sep-05 02:58N 44°24' W 068°12'0 0.0
2017-Sep-05 02:28N 44°24' W 068°12'0 0.0
2017-Sep-05 01:58N 44°24' W 068°12'0 0.0
2017-Sep-05 01:28N 44°24' W 068°12'0 0.0
2017-Sep-05 00:58N 44°24' W 068°12'0 0.0
2017-Sep-05 00:28N 44°24' W 068°12'0 0.0
2017-Sep-04 23:58N 44°24' W 068°12'0 0.0
2017-Sep-04 23:28N 44°24' W 068°12'0 0.0
2017-Sep-04 22:58N 44°24' W 068°12'0 0.0
2017-Sep-04 22:28N 44°24' W 068°12'0 0.0
2017-Sep-04 21:58N 44°24' W 068°12'0 0.0
2017-Sep-04 21:28N 44°24' W 068°12'0 0.0
2017-Sep-04 20:58N 44°24' W 068°12'0 0.0
2017-Sep-04 20:28N 44°24' W 068°12'0 0.0
2017-Sep-04 19:58N 44°24' W 068°12'0 0.0
2017-Sep-04 19:28N 44°24' W 068°12'0 0.0
2017-Sep-04 18:58N 44°24' W 068°12'0 0.0
2017-Sep-04 18:28N 44°24' W 068°12'0 0.0
2017-Sep-04 17:58N 44°24' W 068°12'0 0.0
2017-Sep-04 17:28N 44°24' W 068°12'0 1.0
2017-Sep-04 17:00N 44°24' W 068°12'4 8.1
2017-Sep-04 16:30N 44°20' W 068°09'5 9.9
2017-Sep-04 16:00N 44°15' W 068°08'  
Track history (hours):
 
Tides and Currents Weather Stations Pressure Air Temp Water Temp Dewpoint Dewpoint Depression Visibility Wind Speed Wind Dir Waves Ship Positions

Corinthian

Last reported at 2017-Sep-14 03:00 UTC. Time now 2017-Nov-19 14:24 UTC.
Position N 42°17' W 070°39'.
Warning: this ship's position is months out of date.

Length 40 m.

Type: Pleasure craft. MMSI: 319017100.

Date/timePositionNaut miles runAvg speedWind from/ knotsBaromVisibWave heightAir tempDewpointWater temp
2017-Sep-14 03:00N 42°17' W 070°39'610.8
2017-Sep-14 02:26N 42°22' W 070°43'511.0
2017-Sep-14 02:00N 42°26' W 070°46'5 9.9
2017-Sep-14 01:30N 42°31' W 070°50'0 0.0
2017-Sep-13 23:39N 42°31' W 070°50'0 0.0
2017-Sep-13 20:21N 42°31' W 070°50'0 0.0
2017-Sep-13 19:36N 42°31' W 070°50'0 0.0
2017-Sep-13 19:27N 42°31' W 070°50'0 0.0
2017-Sep-13 18:27N 42°31' W 070°50'0 0.0
2017-Sep-13 11:39N 42°31' W 070°50'0 0.0
2017-Sep-13 11:24N 42°31' W 070°50'0 0.0
2017-Sep-13 11:00N 42°31' W 070°50'0 0.0
2017-Sep-13 10:09N 42°31' W 070°50'0 0.0
2017-Sep-13 09:48N 42°31' W 070°50'0 0.0
2017-Sep-13 09:30N 42°31' W 070°50'0 0.0
2017-Sep-13 08:45N 42°31' W 070°50'0 0.0
2017-Sep-13 08:18N 42°31' W 070°50'0 0.0
2017-Sep-13 07:42N 42°31' W 070°50'0 0.0
2017-Sep-13 07:30N 42°31' W 070°50'0 0.0
2017-Sep-13 06:57N 42°31' W 070°50'0 0.0
2017-Sep-13 06:24N 42°31' W 070°50'0 0.0
2017-Sep-13 05:42N 42°31' W 070°50'0 0.0
2017-Sep-13 05:27N 42°31' W 070°50'0 0.0
2017-Sep-13 04:57N 42°31' W 070°50'0 0.0
2017-Sep-13 04:27N 42°31' W 070°50'0 0.0
2017-Sep-13 03:57N 42°31' W 070°50'0 0.0
2017-Sep-13 03:24N 42°31' W 070°50'0 0.0
2017-Sep-13 03:00N 42°31' W 070°50'0 0.0
2017-Sep-13 02:12N 42°31' W 070°50'0 0.0
2017-Sep-12 18:36N 42°31' W 070°50'0 0.9
2017-Sep-12 18:30N 42°31' W 070°50'1 0.3
2017-Sep-12 15:16N 42°30' W 070°49'711.1
2017-Sep-12 14:40N 42°24' W 070°53'210.9
2017-Sep-12 14:30N 42°22' W 070°55'5 9.6
2017-Sep-12 13:58N 42°21' W 071°01'1 0.7
2017-Sep-12 11:53N 42°22' W 071°03'0 0.0
2017-Sep-12 10:11N 42°22' W 071°03'0 0.0
2017-Sep-12 09:59N 42°22' W 071°03'0 0.0
2017-Sep-12 09:29N 42°22' W 071°03'0 0.0
2017-Sep-12 08:59N 42°22' W 071°03'0 0.0
2017-Sep-12 08:02N 42°22' W 071°03'0 0.0
2017-Sep-12 05:47N 42°22' W 071°03'0 0.0
2017-Sep-11 11:23N 42°22' W 071°03'0 0.0
2017-Sep-11 10:59N 42°22' W 071°03'0 0.0
2017-Sep-11 10:29N 42°22' W 071°03'0 0.0
2017-Sep-11 09:59N 42°22' W 071°03'0 0.0
2017-Sep-11 09:17N 42°22' W 071°03'0 0.0
2017-Sep-11 08:59N 42°22' W 071°03'0 0.0
2017-Sep-11 08:29N 42°22' W 071°03'0 0.0
2017-Sep-11 00:27N 42°22' W 071°03'2 3.5
2017-Sep-11 00:00N 42°21' W 071°01'4 8.7
2017-Sep-10 23:30N 42°22' W 070°55'510.1
2017-Sep-10 23:00N 42°24' W 070°49'510.0
2017-Sep-10 22:30N 42°27' W 070°44'510.0
2017-Sep-10 22:00N 42°31' W 070°39'510.2
2017-Sep-10 21:30N 42°34' W 070°34'510.3
2017-Sep-10 21:00N 42°38' W 070°29'510.8
2017-Sep-10 20:30N 42°41' W 070°24'10310.4
2017-Sep-10 10:36N 44°05' W 069°01'210.6
2017-Sep-10 10:23N 44°08' W 069°01'411.0
2017-Sep-10 10:00N 44°12' W 069°03'1 1.3
2017-Sep-10 09:29N 44°12' W 069°03'0 0.0
2017-Sep-10 08:59N 44°12' W 069°03'0 0.0
2017-Sep-10 08:29N 44°12' W 069°03'0 0.0
2017-Sep-10 07:59N 44°12' W 069°03'0 0.0
2017-Sep-10 07:29N 44°12' W 069°03'0 0.0
2017-Sep-10 06:59N 44°12' W 069°03'0 0.0
2017-Sep-10 06:29N 44°12' W 069°03'0 0.0
2017-Sep-10 05:59N 44°12' W 069°03'0 0.0
2017-Sep-10 05:29N 44°12' W 069°03'0 0.1
2017-Sep-10 05:00N 44°13' W 069°03'0 0.0
2017-Sep-10 04:29N 44°12' W 069°03'0 0.0
2017-Sep-10 03:59N 44°12' W 069°03'0 0.0
2017-Sep-10 03:30N 44°12' W 069°03'0 0.1
2017-Sep-10 03:00N 44°13' W 069°03'0 0.0
2017-Sep-10 02:29N 44°13' W 069°03'0 0.0
2017-Sep-10 01:59N 44°13' W 069°03'0 0.0
2017-Sep-10 01:29N 44°12' W 069°03'0 0.0
2017-Sep-10 00:59N 44°12' W 069°03'0 0.0
2017-Sep-10 00:29N 44°12' W 069°03'0 0.0
2017-Sep-09 23:59N 44°12' W 069°03'0 0.1
2017-Sep-09 23:29N 44°12' W 069°03'0 0.0
2017-Sep-09 22:59N 44°12' W 069°03'0 0.0
2017-Sep-09 22:23N 44°12' W 069°03'0 0.0
2017-Sep-09 21:59N 44°12' W 069°03'0 0.0
2017-Sep-09 21:29N 44°12' W 069°03'0 0.0
2017-Sep-09 20:59N 44°12' W 069°03'0 0.0
2017-Sep-09 20:29N 44°12' W 069°03'0 0.0
2017-Sep-09 19:59N 44°12' W 069°03'0 0.1
2017-Sep-09 19:30N 44°13' W 069°03'0 0.0
2017-Sep-09 18:59N 44°13' W 069°03'0 0.0
2017-Sep-09 18:29N 44°13' W 069°03'0 0.0
2017-Sep-09 17:59N 44°13' W 069°03'4 6.6
2017-Sep-09 17:21N 44°09' W 069°00'13 3.9
2017-Sep-09 13:59N 44°01' W 068°46'8 5.5
2017-Sep-09 12:31N 44°08' W 068°51'0 9.5
2017-Sep-09 12:30N 44°08' W 068°51'1 1.5
2017-Sep-09 11:59N 44°07' W 068°52'0 0.0
2017-Sep-09 11:29N 44°07' W 068°52'2 4.4
2017-Sep-09 11:01N 44°08' W 068°49'4 8.7
2017-Sep-09 10:31N 44°08' W 068°43'2 3.9
2017-Sep-09 09:54N 44°09' W 068°40'0 0.0
2017-Sep-09 09:12N 44°09' W 068°40'0 0.0
2017-Sep-09 08:42N 44°09' W 068°40'0 0.0
2017-Sep-09 08:27N 44°09' W 068°40'0 0.0
2017-Sep-09 07:24N 44°09' W 068°40'0 0.0
2017-Sep-09 06:33N 44°09' W 068°40'0 0.1
2017-Sep-09 06:27N 44°09' W 068°40'0 0.0
2017-Sep-09 05:45N 44°09' W 068°40'0 0.0
2017-Sep-09 05:18N 44°09' W 068°40'0 0.0
2017-Sep-09 04:54N 44°09' W 068°40'0 0.0
2017-Sep-09 04:30N 44°09' W 068°40'0 0.0
2017-Sep-09 03:42N 44°09' W 068°40'0 0.0
2017-Sep-09 03:24N 44°09' W 068°40'0 0.0
2017-Sep-09 03:00N 44°09' W 068°40'0 0.0
2017-Sep-09 02:30N 44°09' W 068°40'0 0.1
2017-Sep-09 02:00N 44°09' W 068°40'0 0.0
2017-Sep-09 01:30N 44°09' W 068°40'0 0.0
2017-Sep-09 00:12N 44°09' W 068°40'0 0.1
2017-Sep-09 00:00N 44°09' W 068°40'0 0.0
2017-Sep-08 23:18N 44°09' W 068°40'0 0.0
2017-Sep-08 22:54N 44°09' W 068°40'0 0.0
2017-Sep-08 22:30N 44°09' W 068°40'0 0.0
2017-Sep-08 22:00N 44°09' W 068°40'2 1.6
2017-Sep-08 21:02N 44°09' W 068°38'010.0
2017-Sep-08 21:00N 44°10' W 068°38'5 9.3
2017-Sep-08 20:30N 44°11' W 068°31'4 8.0
2017-Sep-08 20:00N 44°14' W 068°27'4 8.3
2017-Sep-08 19:30N 44°13' W 068°21'4 8.0
2017-Sep-08 19:00N 44°13' W 068°16'5 9.3
2017-Sep-08 18:30N 44°15' W 068°10'5 9.0
2017-Sep-08 18:00N 44°19' W 068°08'5 8.1
2017-Sep-08 17:21N 44°24' W 068°12'0 0.2
2017-Sep-08 16:58N 44°24' W 068°12'0 0.0
2017-Sep-08 16:28N 44°24' W 068°12'0 0.0
2017-Sep-08 15:58N 44°24' W 068°12'0 0.0
2017-Sep-08 15:28N 44°24' W 068°12'0 0.0
2017-Sep-08 14:58N 44°24' W 068°12'0 0.0
2017-Sep-08 14:28N 44°24' W 068°12'0 0.0
2017-Sep-08 13:58N 44°24' W 068°12'0 0.0
2017-Sep-08 13:28N 44°24' W 068°12'0 0.0
2017-Sep-08 12:58N 44°24' W 068°12'0 0.0
2017-Sep-08 12:28N 44°24' W 068°12'0 0.0
2017-Sep-08 11:58N 44°24' W 068°12'0 0.0
2017-Sep-08 11:28N 44°24' W 068°12'0 0.0
2017-Sep-08 10:58N 44°24' W 068°12'0 0.0
2017-Sep-08 10:28N 44°24' W 068°12'0 0.0
2017-Sep-08 09:58N 44°24' W 068°12'0 0.0
2017-Sep-08 09:28N 44°24' W 068°12'0 0.0
2017-Sep-08 08:58N 44°24' W 068°12'0 0.0
2017-Sep-08 08:28N 44°24' W 068°12'0 0.0
2017-Sep-08 07:58N 44°24' W 068°12'0 0.0
2017-Sep-08 07:28N 44°24' W 068°12'0 0.0
2017-Sep-08 06:58N 44°24' W 068°12'0 0.0
2017-Sep-08 06:28N 44°24' W 068°12'0 0.0
2017-Sep-08 05:58N 44°24' W 068°12'0 0.0
2017-Sep-08 05:28N 44°24' W 068°12'0 0.0
2017-Sep-08 04:58N 44°24' W 068°12'0 0.0
2017-Sep-08 04:28N 44°24' W 068°12'0 0.0
2017-Sep-08 03:58N 44°24' W 068°12'0 0.0
2017-Sep-08 03:28N 44°24' W 068°12'0 0.0
2017-Sep-08 02:58N 44°24' W 068°12'0 0.0
2017-Sep-08 02:28N 44°24' W 068°12'0 0.0
2017-Sep-08 01:58N 44°24' W 068°12'0 0.0
2017-Sep-08 01:28N 44°24' W 068°12'0 0.0
2017-Sep-08 00:58N 44°24' W 068°12'0 0.0
2017-Sep-08 00:28N 44°24' W 068°12'0 0.0
2017-Sep-07 23:58N 44°24' W 068°12'0 0.0
2017-Sep-07 23:28N 44°24' W 068°12'0 0.0
2017-Sep-07 22:58N 44°24' W 068°12'0 0.0
2017-Sep-07 22:28N 44°24' W 068°12'0 0.0
2017-Sep-07 21:58N 44°24' W 068°12'0 0.0
2017-Sep-07 21:28N 44°24' W 068°12'0 0.0
2017-Sep-07 20:58N 44°24' W 068°12'0 0.0
2017-Sep-07 20:28N 44°24' W 068°12'0 0.0
2017-Sep-07 19:58N 44°24' W 068°12'0 0.0
2017-Sep-07 19:28N 44°24' W 068°12'0 0.0
2017-Sep-07 18:58N 44°24' W 068°12'0 0.0
2017-Sep-07 18:28N 44°24' W 068°12'0 0.0
2017-Sep-07 17:58N 44°24' W 068°12'0 0.0
2017-Sep-07 17:28N 44°24' W 068°12'0 0.0
2017-Sep-07 16:58N 44°24' W 068°12'0 0.0
2017-Sep-07 16:28N 44°24' W 068°12'0 0.0
2017-Sep-07 15:58N 44°24' W 068°12'0 0.0
2017-Sep-07 15:28N 44°24' W 068°12'0 0.0
2017-Sep-07 14:58N 44°24' W 068°12'0 0.0
2017-Sep-07 14:28N 44°24' W 068°12'0 0.0
2017-Sep-07 13:58N 44°24' W 068°12'0 0.0
2017-Sep-07 13:28N 44°24' W 068°12'0 0.0
2017-Sep-07 12:58N 44°24' W 068°12'0 0.0
2017-Sep-07 12:28N 44°24' W 068°12'0 0.0
2017-Sep-07 11:58N 44°24' W 068°12'0 0.0
2017-Sep-07 11:28N 44°24' W 068°12'0 0.0
2017-Sep-07 10:58N 44°24' W 068°12'0 0.0
2017-Sep-07 10:25N 44°24' W 068°12'0 0.0
2017-Sep-07 09:58N 44°24' W 068°12'0 0.0
2017-Sep-07 09:28N 44°24' W 068°12'0 0.0
2017-Sep-07 08:58N 44°24' W 068°12'0 0.0
2017-Sep-07 08:28N 44°24' W 068°12'0 0.0
2017-Sep-07 07:58N 44°24' W 068°12'0 0.0
2017-Sep-07 07:28N 44°24' W 068°12'0 0.0
2017-Sep-07 06:58N 44°24' W 068°12'0 0.0
2017-Sep-07 06:28N 44°24' W 068°12'0 0.0
2017-Sep-07 05:58N 44°24' W 068°12'0 0.0
2017-Sep-07 05:28N 44°24' W 068°12'0 0.0
2017-Sep-07 04:58N 44°24' W 068°12'0 0.0
2017-Sep-07 04:28N 44°24' W 068°12'0 0.0
2017-Sep-07 03:58N 44°24' W 068°12'0 0.0
2017-Sep-07 03:28N 44°24' W 068°12'0 0.0
2017-Sep-07 02:58N 44°24' W 068°12'0 0.0
2017-Sep-07 02:28N 44°24' W 068°12'0 0.0
2017-Sep-07 01:58N 44°24' W 068°12'0 0.0
2017-Sep-07 01:28N 44°24' W 068°12'0 0.0
2017-Sep-07 00:58N 44°24' W 068°12'0 0.0
2017-Sep-07 00:28N 44°24' W 068°12'0 0.0
2017-Sep-06 23:58N 44°24' W 068°12'0 0.0
2017-Sep-06 23:28N 44°24' W 068°12'0 0.0
2017-Sep-06 22:58N 44°24' W 068°12'0 0.0
2017-Sep-06 22:28N 44°24' W 068°12'0 0.0
2017-Sep-06 21:58N 44°24' W 068°12'0 0.0
2017-Sep-06 21:28N 44°24' W 068°12'0 0.0
2017-Sep-06 20:58N 44°24' W 068°12'0 0.0
2017-Sep-06 20:28N 44°24' W 068°12'0 0.0
2017-Sep-06 19:58N 44°24' W 068°12'0 0.0
2017-Sep-06 19:28N 44°24' W 068°12'0 0.0
2017-Sep-06 18:58N 44°24' W 068°12'0 0.0
2017-Sep-06 18:28N 44°24' W 068°12'0 0.0
2017-Sep-06 17:58N 44°24' W 068°12'0 0.0
2017-Sep-06 17:28N 44°24' W 068°12'0 0.0
2017-Sep-06 16:58N 44°24' W 068°12'0 0.0
2017-Sep-06 16:28N 44°24' W 068°12'0 0.0
2017-Sep-06 15:58N 44°24' W 068°12'0 0.0
2017-Sep-06 15:28N 44°24' W 068°12'0 0.0
2017-Sep-06 14:58N 44°24' W 068°12'0 0.0
2017-Sep-06 14:28N 44°24' W 068°12'0 0.0
2017-Sep-06 13:58N 44°24' W 068°12'0 0.0
2017-Sep-06 13:28N 44°24' W 068°12'0 0.0
2017-Sep-06 12:58N 44°24' W 068°12'0 0.0
2017-Sep-06 12:28N 44°24' W 068°12'0 0.0
2017-Sep-06 11:58N 44°24' W 068°12'0 0.0
2017-Sep-06 11:28N 44°24' W 068°12'0 0.0
2017-Sep-06 10:58N 44°24' W 068°12'0 0.0
2017-Sep-06 10:28N 44°24' W 068°12'0 0.0
2017-Sep-06 09:58N 44°24' W 068°12'0 0.0
2017-Sep-06 09:28N 44°24' W 068°12'0 0.0
2017-Sep-06 08:58N 44°24' W 068°12'0 0.0
2017-Sep-06 08:28N 44°24' W 068°12'0 0.0
2017-Sep-06 07:58N 44°24' W 068°12'0 0.0
2017-Sep-06 07:28N 44°24' W 068°12'0 0.0
2017-Sep-06 06:58N 44°24' W 068°12'0 0.0
2017-Sep-06 06:28N 44°24' W 068°12'0 0.0
2017-Sep-06 05:58N 44°24' W 068°12'0 0.0
2017-Sep-06 05:28N 44°24' W 068°12'0 0.0
2017-Sep-06 04:58N 44°24' W 068°12'0 0.0
2017-Sep-06 04:28N 44°24' W 068°12'0 0.0
2017-Sep-06 03:58N 44°24' W 068°12'0 0.0
2017-Sep-06 03:28N 44°24' W 068°12'0 0.0
2017-Sep-06 02:58N 44°24' W 068°12'0 0.0
2017-Sep-06 02:28N 44°24' W 068°12'0 0.0
2017-Sep-06 01:58N 44°24' W 068°12'0 0.0
2017-Sep-06 01:28N 44°24' W 068°12'0 0.0
2017-Sep-06 00:58N 44°24' W 068°12'0 0.0
2017-Sep-06 00:28N 44°24' W 068°12'0 0.0
2017-Sep-05 23:58N 44°24' W 068°12'0 0.0
2017-Sep-05 23:28N 44°24' W 068°12'0 0.0
2017-Sep-05 22:58N 44°24' W 068°12'0 0.0
2017-Sep-05 22:28N 44°24' W 068°12'0 0.0
2017-Sep-05 21:58N 44°24' W 068°12'0 0.0
2017-Sep-05 21:28N 44°24' W 068°12'0 0.0
2017-Sep-05 20:58N 44°24' W 068°12'0 0.0
2017-Sep-05 20:28N 44°24' W 068°12'0 0.0
2017-Sep-05 19:58N 44°24' W 068°12'0 0.0
2017-Sep-05 19:28N 44°24' W 068°12'0 0.0
2017-Sep-05 18:58N 44°24' W 068°12'0 0.0
2017-Sep-05 18:28N 44°24' W 068°12'0 0.0
2017-Sep-05 17:58N 44°24' W 068°12'0 0.0
2017-Sep-05 16:10N 44°24' W 068°12'0 0.0
2017-Sep-05 15:58N 44°24' W 068°12'0 0.0
2017-Sep-05 15:28N 44°24' W 068°12'0 0.0
2017-Sep-05 14:58N 44°24' W 068°12'0 0.0
2017-Sep-05 14:28N 44°24' W 068°12'0 0.0
2017-Sep-05 13:58N 44°24' W 068°12'0 0.0
2017-Sep-05 13:28N 44°24' W 068°12'0 0.0
2017-Sep-05 12:58N 44°24' W 068°12'0 0.0
2017-Sep-05 12:28N 44°24' W 068°12'0 0.0
2017-Sep-05 11:58N 44°24' W 068°12'0 0.0
2017-Sep-05 11:28N 44°24' W 068°12'0 0.0
2017-Sep-05 10:58N 44°24' W 068°12'0 0.0
2017-Sep-05 10:28N 44°24' W 068°12'0 0.0
2017-Sep-05 09:58N 44°24' W 068°12'0 0.0
2017-Sep-05 09:28N 44°24' W 068°12'0 0.0
2017-Sep-05 08:58N 44°24' W 068°12'0 0.0
2017-Sep-05 08:28N 44°24' W 068°12'0 0.0
2017-Sep-05 07:58N 44°24' W 068°12'0 0.0
2017-Sep-05 07:28N 44°24' W 068°12'0 0.0
2017-Sep-05 06:58N 44°24' W 068°12'0 0.0
2017-Sep-05 06:25N 44°24' W 068°12'0 0.0
2017-Sep-05 05:58N 44°24' W 068°12'0 0.0
2017-Sep-05 05:28N 44°24' W 068°12'0 0.0
2017-Sep-05 04:58N 44°24' W 068°12'0 0.0
2017-Sep-05 04:28N 44°24' W 068°12'0 0.0
2017-Sep-05 03:58N 44°24' W 068°12'0 0.0
2017-Sep-05 03:28N 44°24' W 068°12'0 0.0
2017-Sep-05 02:58N 44°24' W 068°12'0 0.0
2017-Sep-05 02:28N 44°24' W 068°12'0 0.0
2017-Sep-05 01:58N 44°24' W 068°12'0 0.0
2017-Sep-05 01:28N 44°24' W 068°12'0 0.0
2017-Sep-05 00:58N 44°24' W 068°12'0 0.0
2017-Sep-05 00:28N 44°24' W 068°12'0 0.0
2017-Sep-04 23:58N 44°24' W 068°12'0 0.0
2017-Sep-04 23:28N 44°24' W 068°12'0 0.0
2017-Sep-04 22:58N 44°24' W 068°12'0 0.0
2017-Sep-04 22:28N 44°24' W 068°12'0 0.0
2017-Sep-04 21:58N 44°24' W 068°12'0 0.0
2017-Sep-04 21:28N 44°24' W 068°12'0 0.0
2017-Sep-04 20:58N 44°24' W 068°12'0 0.0
2017-Sep-04 20:28N 44°24' W 068°12'0 0.0
2017-Sep-04 19:58N 44°24' W 068°12'0 0.0
2017-Sep-04 19:28N 44°24' W 068°12'0 0.0
2017-Sep-04 18:58N 44°24' W 068°12'0 0.0
2017-Sep-04 18:28N 44°24' W 068°12'0 0.0
2017-Sep-04 17:58N 44°24' W 068°12'0 0.0
2017-Sep-04 17:28N 44°24' W 068°12'0 1.0
2017-Sep-04 17:00N 44°24' W 068°12'4 8.1
2017-Sep-04 16:30N 44°20' W 068°09'5 9.9
2017-Sep-04 16:00N 44°15' W 068°08'  

Dump ship's entire track history